This is the latest recevied weather packets stored in our database for station/object PY2KO-3. If no packets are shown the sender has not sent any weather packets the latest 10 day(s).
| Time | Temp. | Humidity | Pressure | Rain* | Wind** | Luminosity | Snow |
|---|---|---|---|---|---|---|---|
| 1778006950 | 31.11° C | 48% | 1019.1 hPa | - | - | - | - |
| 1778006050 | 31.11° C | 46% | 1019.1 hPa | - | - | - | - |
| 1778005152 | 31.11° C | 46% | 1019.1 hPa | - | - | - | - |
| 1778004251 | 31.11° C | 44% | 1019.1 hPa | - | - | - | - |
| 1778003350 | 30.56° C | 43% | 1019.4 hPa | - | - | - | - |
| 1778002449 | 30° C | 42% | 1019.7 hPa | - | - | - | - |
| 1778001550 | 30.56° C | 44% | 1019.7 hPa | - | - | - | - |
| 1778000650 | 30° C | 45% | 1020 hPa | - | - | - | - |
| 1777999750 | 30° C | 44% | 1020 hPa | - | - | - | - |
| 1777998849 | 29.44° C | 47% | 1020.3 hPa | - | - | - | - |
| 1777997950 | 29.44° C | 48% | 1020.6 hPa | - | - | - | - |
| 1777997050 | 29.44° C | 49% | 1021 hPa | - | - | - | - |
| 1777996150 | 28.89° C | 50% | 1021.2 hPa | - | - | - | - |
| 1777995254 | 28.89° C | 53% | 1021.2 hPa | - | - | - | - |
| 1777994351 | 28.89° C | 54% | 1021.5 hPa | - | - | - | - |
| 1777993450 | 28.33° C | 56% | 1021.8 hPa | - | - | - | - |
| 1777992550 | 27.78° C | 56% | 1022 hPa | - | - | - | - |
| 1777991651 | 27.22° C | 60% | 1022.4 hPa | - | - | - | - |
| 1777990750 | 26.11° C | 63% | 1023 hPa | - | - | - | - |
| 1777989850 | 25.56° C | 62% | 1023.3 hPa | - | - | - | - |
| 1777988950 | 26.11° C | 62% | 1023.4 hPa | - | - | - | - |
| 1777988050 | 25° C | 63% | 1023.8 hPa | - | - | - | - |
| 1777987150 | 25° C | 67% | 1024.1 hPa | - | - | - | - |
| 1777986250 | 24.44° C | 66% | 1024.1 hPa | - | - | - | - |
| 1777985363 | 24.44° C | 67% | 1024.1 hPa | - | - | - | - |
* Rain since midnight (hover to see other rain measurements)
** Current wind speed in m/s (hover to see current wind gust speed)